Time;durP1;ratioP1;P1;durP2;ratioP2;P2;SDS_P1;SDS_P2;PMS_P1;PMS_P2;Temp;Humidity;BMP_temperature;BMP_pressure;BME280_temperature;BME280_humidity;BME280_pressure;Samples;Min_cycle;Max_cycle;Signal;HPM_P1;HPM_P2
2022/08/25 00:00:59;;;;;;;1999.90;999.90;;;25.50;30.70;;;;;;5037300;28;20411;-67
2022/08/25 00:03:25;;;;;;;1999.90;999.90;;;25.40;30.80;;;;;;5047177;28;20469;-67
2022/08/25 00:05:50;;;;;;;1999.90;999.90;;;25.40;31.00;;;;;;5048263;28;20442;-67
2022/08/25 00:08:16;;;;;;;1999.90;999.90;;;25.30;31.20;;;;;;5046619;28;20192;-67
2022/08/25 00:10:42;;;;;;;1999.90;999.90;;;25.20;31.30;;;;;;5047536;28;20171;-66
2022/08/25 00:13:08;;;;;;;1999.90;999.90;;;25.20;31.50;;;;;;5046064;28;20434;-68
2022/08/25 00:15:34;;;;;;;1999.90;999.90;;;25.20;31.70;;;;;;5042505;28;20621;-67
2022/08/25 00:18:00;;;;;;;1999.90;999.90;;;25.20;32.00;;;;;;5032986;28;20926;-67
2022/08/25 00:20:27;;;;;;;1999.90;999.90;;;25.10;32.20;;;;;;5033362;28;20889;-67
2022/08/25 00:22:54;;;;;;;1999.90;999.90;;;25.00;32.50;;;;;;5033254;28;20954;-67
2022/08/25 00:25:22;;;;;;;1999.90;999.90;;;24.90;32.80;;;;;;5033311;28;20473;-67
2022/08/25 00:27:49;;;;;;;1999.90;999.90;;;24.80;33.40;;;;;;5039584;28;20479;-67
2022/08/25 00:30:16;;;;;;;1999.90;999.90;;;24.80;34.00;;;;;;5047472;28;20389;-68
2022/08/25 00:32:41;;;;;;;1999.90;999.90;;;24.80;34.40;;;;;;5037846;28;20407;-67
2022/08/25 00:35:07;;;;;;;1999.90;999.90;;;24.70;34.60;;;;;;5032870;28;20374;-67
2022/08/25 00:37:35;;;;;;;1999.90;999.90;;;24.70;35.00;;;;;;5032610;28;20231;-67
2022/08/25 00:40:00;;;;;;;1999.90;999.90;;;24.60;35.30;;;;;;5032873;28;20172;-67
2022/08/25 00:42:26;;;;;;;1999.90;999.90;;;24.50;35.40;;;;;;5044759;28;20432;-68
2022/08/25 00:44:52;;;;;;;1999.90;999.90;;;24.50;35.90;;;;;;5048472;28;20168;-67
2022/08/25 00:47:19;;;;;;;1999.90;999.90;;;24.40;36.30;;;;;;5047590;28;20482;-67
2022/08/25 00:49:56;;;;;;;1999.90;999.90;;;24.40;36.50;;;;;;5035702;28;20480;-66
2022/08/25 00:52:26;;;;;;;1999.90;999.90;;;24.40;37.00;;;;;;5032809;28;20431;-66
2022/08/25 00:55:05;;;;;;;1999.90;999.90;;;24.30;37.20;;;;;;5032655;28;20378;-66
2022/08/25 00:57:48;;;;;;;1999.90;999.90;;;24.10;38.40;;;;;;5032134;28;20443;-67
2022/08/25 01:00:20;;;;;;;1999.90;999.90;;;24.00;39.30;;;;;;5032556;28;20503;-66
2022/08/25 01:02:46;;;;;;;1999.90;999.90;;;24.00;39.10;;;;;;5032521;28;20516;-67
2022/08/25 01:05:11;;;;;;;1999.90;999.90;;;23.90;39.60;;;;;;5032511;28;20378;-67
2022/08/25 01:07:38;;;;;;;1999.90;999.90;;;23.80;40.70;;;;;;5043469;28;20510;-67
2022/08/25 01:10:06;;;;;;;1999.90;999.90;;;23.80;41.80;;;;;;5047077;28;20210;-66
2022/08/25 01:12:32;;;;;;;1999.90;999.90;;;23.70;42.10;;;;;;5030735;28;20397;-67
2022/08/25 01:15:00;;;;;;;1999.90;999.90;;;23.60;43.60;;;;;;5036100;28;20440;-67
2022/08/25 01:17:43;;;;;;;1999.90;999.90;;;23.60;44.90;;;;;;5043087;28;20798;-67
2022/08/25 01:20:09;;;;;;;1999.90;999.90;;;23.60;45.60;;;;;;5046806;28;20439;-67
2022/08/25 01:22:36;;;;;;;1999.90;999.90;;;23.50;46.10;;;;;;5035103;28;20813;-66
2022/08/25 01:25:12;;;;;;;1999.90;999.90;;;23.50;46.80;;;;;;5032182;28;20579;-66
2022/08/25 01:27:38;;;;;;;1999.90;999.90;;;23.50;47.10;;;;;;5031627;28;20413;-66
2022/08/25 01:30:04;;;;;;;1999.90;999.90;;;23.50;47.50;;;;;;5032131;28;20826;-67
2022/08/25 01:32:33;;;;;;;1999.90;999.90;;;23.50;47.60;;;;;;5032118;28;20592;-67
2022/08/25 01:34:59;;;;;;;1999.90;999.90;;;23.50;47.80;;;;;;5032074;28;20378;-67
2022/08/25 01:37:25;;;;;;;1999.90;999.90;;;23.50;47.80;;;;;;5031681;28;20423;-67
2022/08/25 01:39:50;;;;;;;1999.90;999.90;;;23.60;47.60;;;;;;5037991;28;20179;-67
2022/08/25 01:42:41;;;;;;;1999.90;999.90;;;23.50;47.50;;;;;;5046992;28;20549;-67
2022/08/25 01:45:09;;;;;;;1999.90;999.90;;;23.50;47.50;;;;;;5045767;28;20176;-66
2022/08/25 01:47:36;;;;;;;1999.90;999.90;;;23.60;47.80;;;;;;5031640;28;20419;-67
2022/08/25 01:50:02;;;;;;;1999.90;999.90;;;23.50;47.70;;;;;;5031944;28;20377;-66
2022/08/25 01:52:35;;;;;;;1999.90;999.90;;;23.50;47.70;;;;;;5031954;28;20489;-65
2022/08/25 01:55:01;;;;;;;1999.90;999.90;;;23.50;47.70;;;;;;5031812;28;20406;-66
2022/08/25 01:57:30;;;;;;;1999.90;999.90;;;23.50;48.10;;;;;;5031477;28;20913;-67
2022/08/25 01:59:56;;;;;;;1999.90;999.90;;;23.40;48.80;;;;;;5046880;28;20198;-67
2022/08/25 02:02:22;;;;;;;1999.90;999.90;;;23.40;49.00;;;;;;5046265;28;20440;-66
2022/08/25 02:04:48;;;;;;;1999.90;999.90;;;23.30;49.10;;;;;;5047914;28;20369;-67
2022/08/25 02:07:14;;;;;;;1999.90;999.90;;;23.20;50.10;;;;;;5047460;28;20271;-67
2022/08/25 02:09:39;;;;;;;1999.90;999.90;;;23.20;50.30;;;;;;5047249;28;20191;-67
2022/08/25 02:12:05;;;;;;;1999.90;999.90;;;23.10;50.40;;;;;;5046502;28;20180;-67
2022/08/25 02:14:31;;;;;;;1999.90;999.90;;;23.10;50.50;;;;;;5036173;28;20165;-66
2022/08/25 02:16:57;;;;;;;1999.90;999.90;;;23.00;50.70;;;;;;5031349;28;20426;-66
2022/08/25 02:19:24;;;;;;;1999.90;999.90;;;22.80;50.90;;;;;;5035945;28;20176;-67
2022/08/25 02:21:50;;;;;;;1999.90;999.90;;;22.80;51.40;;;;;;5046185;28;20160;-67
2022/08/25 02:24:17;;;;;;;1999.90;999.90;;;22.70;51.90;;;;;;5046139;28;20486;-67
2022/08/25 02:26:43;;;;;;;1999.90;999.90;;;22.60;51.70;;;;;;5045795;28;20444;-67
2022/08/25 02:29:10;;;;;;;1999.90;999.90;;;22.50;52.70;;;;;;5045799;28;20468;-67
2022/08/25 02:31:36;;;;;;;1999.90;999.90;;;22.50;53.40;;;;;;5045510;28;20411;-66
2022/08/25 02:34:03;;;;;;;1999.90;999.90;;;22.40;54.30;;;;;;5040644;28;20414;-66
2022/08/25 02:36:30;;;;;;;1999.90;999.90;;;22.30;55.40;;;;;;5031055;28;20484;-65
2022/08/25 02:38:56;;;;;;;1999.90;999.90;;;22.30;57.10;;;;;;5031679;28;20777;-66
2022/08/25 02:41:24;;;;;;;1999.90;999.90;;;22.20;58.40;;;;;;5031375;28;20594;-66
2022/08/25 02:43:50;;;;;;;1999.90;999.90;;;22.20;60.80;;;;;;5031390;28;20225;-66
2022/08/25 02:46:18;;;;;;;1999.90;999.90;;;22.20;62.80;;;;;;5031035;28;20415;-67
2022/08/25 02:48:45;;;;;;;1999.90;999.90;;;22.10;66.70;;;;;;5031384;28;20910;-67
2022/08/25 02:51:12;;;;;;;1999.90;999.90;;;22.10;68.40;;;;;;5031358;28;20374;-67
2022/08/25 02:53:39;;;;;;;1999.90;999.90;;;22.00;69.60;;;;;;5031350;28;20410;-67
2022/08/25 02:56:08;;;;;;;1999.90;999.90;;;22.00;71.30;;;;;;5031029;28;20381;-67
2022/08/25 02:58:35;;;;;;;1999.90;999.90;;;21.90;71.30;;;;;;5033199;28;20416;-67
2022/08/25 03:01:00;;;;;;;1999.90;999.90;;;21.70;72.60;;;;;;5034924;28;20380;-67
2022/08/25 03:03:26;;;;;;;1999.90;999.90;;;21.60;74.30;;;;;;5034655;28;20855;-67
2022/08/25 03:05:51;;;;;;;1999.90;999.90;;;21.60;75.10;;;;;;5034690;28;20164;-66
2022/08/25 03:08:17;;;;;;;1999.90;999.90;;;21.50;74.50;;;;;;5041883;28;20223;-67
2022/08/25 03:10:43;;;;;;;1999.90;999.90;;;21.50;75.90;;;;;;5039222;28;20513;-66
2022/08/25 03:13:09;;;;;;;1999.90;999.90;;;21.50;77.80;;;;;;5034599;28;20643;-67
2022/08/25 03:15:36;;;;;;;1999.90;999.90;;;21.50;80.40;;;;;;5034548;28;20416;-67
2022/08/25 03:18:03;;;;;;;1999.90;999.90;;;21.40;81.90;;;;;;5034209;28;20192;-67
2022/08/25 03:20:29;;;;;;;1999.90;999.90;;;21.50;83.30;;;;;;5034457;28;20432;-67
2022/08/25 03:22:55;;;;;;;1999.90;999.90;;;21.40;87.30;;;;;;5034412;28;20451;-67
2022/08/25 03:28:06;;;;;;;1999.90;999.90;;;21.50;90.40;;;;;;5033996;28;20206;-67
2022/08/25 03:30:32;;;;;;;1999.90;999.90;;;21.50;91.10;;;;;;5034261;28;20385;-67
2022/08/25 03:32:57;;;;;;;1999.90;999.90;;;21.40;91.90;;;;;;5034244;28;20447;-67
2022/08/25 03:35:23;;;;;;;1999.90;999.90;;;21.40;91.60;;;;;;5043556;28;20175;-66
2022/08/25 03:37:50;;;;;;;1999.90;999.90;;;21.20;92.00;;;;;;5037750;28;20191;-67
2022/08/25 03:40:18;;;;;;;1999.90;999.90;;;21.10;92.40;;;;;;5046952;28;20175;-67
2022/08/25 03:42:45;;;;;;;1999.90;999.90;;;21.00;93.60;;;;;;5046796;28;20449;-65
2022/08/25 03:45:12;;;;;;;1999.90;999.90;;;21.00;94.40;;;;;;5043726;28;20931;-68
2022/08/25 03:47:39;;;;;;;1999.90;999.90;;;20.90;94.80;;;;;;5037984;28;20519;-66
2022/08/25 03:50:07;;;;;;;1999.90;999.90;;;20.90;95.70;;;;;;5033933;28;20907;-67
2022/08/25 03:52:33;;;;;;;1999.90;999.90;;;20.80;96.70;;;;;;5038641;28;20385;-67
2022/08/25 03:54:59;;;;;;;1999.90;999.90;;;20.80;97.90;;;;;;5043243;28;20465;-66
2022/08/25 03:57:25;;;;;;;1999.90;999.90;;;20.80;98.40;;;;;;5033342;28;20951;-67
2022/08/25 03:59:51;;;;;;;1999.90;999.90;;;20.70;98.90;;;;;;5033697;28;20499;-65
2022/08/25 04:02:17;;;;;;;1999.90;999.90;;;20.70;99.70;;;;;;5033585;28;20661;-67
2022/08/25 04:04:43;;;;;;;1999.90;999.90;;;20.70;99.90;;;;;;5033657;28;20412;-67
2022/08/25 04:07:08;;;;;;;1999.90;999.90;;;20.70;99.80;;;;;;5033201;28;20432;-67
2022/08/25 04:09:34;;;;;;;1999.90;999.90;;;20.50;99.90;;;;;;5033064;28;20169;-67
2022/08/25 04:12:00;;;;;;;1999.90;999.90;;;20.40;99.90;;;;;;5033525;28;20242;-67
2022/08/25 04:14:26;;;;;;;1999.90;999.90;;;20.40;99.90;;;;;;5033392;28;20169;-67
2022/08/25 04:16:52;;;;;;;1999.90;999.90;;;20.40;99.90;;;;;;5033089;28;20190;-67
2022/08/25 04:19:19;;;;;;;1999.90;999.90;;;20.40;99.90;;;;;;5039147;28;20175;-66
2022/08/25 04:21:44;;;;;;;1999.90;999.90;;;20.40;99.90;;;;;;5033407;28;20457;-67
2022/08/25 04:24:11;;;;;;;1999.90;999.90;;;20.40;99.90;;;;;;5033198;28;21023;-66
2022/08/25 04:26:41;;;;;;;1999.90;999.90;;;20.40;99.90;;;;;;5032726;28;20212;-66
2022/08/25 04:29:09;;;;;;;1999.90;999.90;;;20.40;99.90;;;;;;5033071;28;20415;-66
2022/08/25 04:31:35;;;;;;;1999.90;999.90;;;20.40;99.90;;;;;;5047908;28;20913;-66
2022/08/25 04:34:02;;;;;;;1999.90;999.90;;;20.40;99.90;;;;;;5049836;28;20382;-67
2022/08/25 04:36:28;;;;;;;1999.90;999.90;;;20.40;99.90;;;;;;5046777;28;20428;-67
2022/08/25 04:38:54;;;;;;;1999.90;999.90;;;20.40;99.90;;;;;;5046983;28;20386;-67
2022/08/25 04:41:23;;;;;;;1999.90;999.90;;;20.40;99.90;;;;;;5046274;28;20408;-67
2022/08/25 04:43:49;;;;;;;1999.90;999.90;;;20.50;99.90;;;;;;5033750;28;20245;-67
2022/08/25 04:46:17;;;;;;;1999.90;999.90;;;20.50;99.90;;;;;;5032687;28;20805;-67
2022/08/25 04:48:43;;;;;;;1999.90;999.90;;;20.50;99.90;;;;;;5032840;28;20400;-67
2022/08/25 04:51:15;;;;;;;1999.90;999.90;;;20.60;99.90;;;;;;5032817;28;20546;-66
2022/08/25 04:53:41;;;;;;;1999.90;999.90;;;20.50;99.90;;;;;;5032668;28;20754;-66
2022/08/25 04:56:09;;;;;;;1999.90;999.90;;;20.60;99.90;;;;;;5032254;28;20413;-67
2022/08/25 04:58:36;;;;;;;1999.90;999.90;;;20.50;99.90;;;;;;5032618;28;20391;-66
2022/08/25 05:01:04;;;;;;;1999.90;999.90;;;20.50;99.90;;;;;;5032602;28;20416;-66
2022/08/25 05:03:30;;;;;;;1999.90;999.90;;;20.60;99.90;;;;;;5032454;28;20485;-66
2022/08/25 05:05:56;;;;;;;1999.90;999.90;;;20.60;99.90;;;;;;5032232;28;20462;-67
2022/08/25 05:08:21;;;;;;;1999.90;999.90;;;20.50;99.90;;;;;;5032213;28;20165;-67
2022/08/25 05:10:47;;;;;;;1999.90;999.90;;;20.50;99.90;;;;;;5032396;28;20461;-66
2022/08/25 05:13:12;;;;;;;1999.90;999.90;;;20.50;99.90;;;;;;5032453;28;20263;-66
2022/08/25 05:15:50;;;;;;;1999.90;999.90;;;20.50;99.90;;;;;;5032349;28;20176;-67
2022/08/25 05:18:20;;;;;;;1999.90;999.90;;;20.50;99.90;;;;;;5032145;28;20279;-67
2022/08/25 05:20:46;;;;;;;1999.90;999.90;;;20.60;99.90;;;;;;5031569;28;20498;-67
2022/08/25 05:23:11;;;;;;;1999.90;999.90;;;20.60;99.90;;;;;;5032115;28;20464;-67
2022/08/25 05:25:37;;;;;;;1999.90;999.90;;;20.70;99.90;;;;;;5032181;28;20668;-67
2022/08/25 05:28:03;;;;;;;1999.90;999.90;;;20.70;99.90;;;;;;5033720;28;20206;-67
2022/08/25 05:30:29;;;;;;;1999.90;999.90;;;20.80;99.90;;;;;;5037377;28;20406;-65
2022/08/25 05:32:56;;;;;;;1999.90;999.90;;;20.90;99.90;;;;;;5032148;28;20873;-65
2022/08/25 05:35:22;;;;;;;1999.90;999.90;;;20.90;99.90;;;;;;5038812;28;20258;-67
2022/08/25 05:37:47;;;;;;;1999.90;999.90;;;21.00;99.90;;;;;;5033070;28;20399;-67
2022/08/25 05:40:13;;;;;;;1999.90;999.90;;;21.10;99.90;;;;;;5032109;28;20413;-67
2022/08/25 05:42:39;;;;;;;1999.90;999.90;;;21.10;99.90;;;;;;5031914;28;20269;-67
2022/08/25 05:45:06;;;;;;;1999.90;999.90;;;21.20;99.90;;;;;;5032022;28;20655;-67
2022/08/25 05:47:33;;;;;;;1999.90;999.90;;;21.30;99.90;;;;;;5036114;28;20190;-67
2022/08/25 05:49:58;;;;;;;1999.90;999.90;;;21.40;99.90;;;;;;5039594;28;20387;-67
2022/08/25 05:52:27;;;;;;;1999.90;999.90;;;21.40;99.90;;;;;;5031801;28;20412;-67
2022/08/25 05:54:52;;;;;;;1999.90;999.90;;;21.50;99.90;;;;;;5038359;28;20503;-66
2022/08/25 05:57:18;;;;;;;1999.90;999.90;;;21.60;99.90;;;;;;5034319;28;20477;-65
2022/08/25 05:59:44;;;;;;;1999.90;999.90;;;21.60;99.90;;;;;;5031854;28;20188;-67
2022/08/25 06:04:53;;;;;;;1999.90;999.90;;;21.70;99.90;;;;;;5031787;28;20178;-67
2022/08/25 06:07:19;;;;;;;1999.90;999.90;;;21.70;99.90;;;;;;5031559;28;20794;-67
2022/08/25 06:09:47;;;;;;;1999.90;999.90;;;21.80;99.90;;;;;;5031716;28;20182;-67
2022/08/25 06:12:13;;;;;;;1999.90;999.90;;;21.80;99.90;;;;;;5031709;28;20451;-67
2022/08/25 06:14:39;;;;;;;1999.90;999.90;;;21.80;99.90;;;;;;5043204;28;20456;-66
2022/08/25 06:17:05;;;;;;;1999.90;999.90;;;21.90;99.90;;;;;;5035294;28;20441;-67
2022/08/25 06:19:30;;;;;;;1999.90;999.90;;;22.00;99.90;;;;;;5031575;28;20197;-66
2022/08/25 06:21:57;;;;;;;1999.90;999.90;;;22.10;99.90;;;;;;5031601;28;20638;-66
2022/08/25 06:24:27;;;;;;;1999.90;999.90;;;22.20;99.90;;;;;;5031635;28;20175;-67
2022/08/25 06:26:53;;;;;;;1999.90;999.90;;;22.20;99.90;;;;;;5032273;28;20929;-67
2022/08/25 06:29:19;;;;;;;1999.90;999.90;;;22.30;99.90;;;;;;5044653;28;20399;-67
2022/08/25 06:31:46;;;;;;;1999.90;999.90;;;22.50;99.90;;;;;;5043099;28;20174;-67
2022/08/25 06:34:12;;;;;;;1999.90;999.90;;;22.60;99.90;;;;;;5035214;28;20386;-66
2022/08/25 06:36:38;;;;;;;1999.90;999.90;;;22.70;99.90;;;;;;5034892;28;21015;-67
2022/08/25 06:39:05;;;;;;;1999.90;999.90;;;22.80;99.90;;;;;;5047620;28;20384;-67
2022/08/25 06:41:30;;;;;;;1999.90;999.90;;;22.80;99.90;;;;;;5036012;28;20391;-67
2022/08/25 06:43:56;;;;;;;1999.90;999.90;;;23.00;99.90;;;;;;5035023;28;20938;-67
2022/08/25 06:46:25;;;;;;;1999.90;999.90;;;23.10;99.90;;;;;;5044387;28;20611;-67
2022/08/25 06:48:53;;;;;;;1999.90;999.90;;;23.10;99.90;;;;;;5041096;28;20392;-66
2022/08/25 06:51:20;;;;;;;1999.90;999.90;;;23.30;99.90;;;;;;5035058;28;20500;-67
2022/08/25 06:53:47;;;;;;;1999.90;999.90;;;23.40;99.90;;;;;;5034917;28;20446;-67
2022/08/25 06:56:14;;;;;;;1999.90;999.90;;;23.50;99.90;;;;;;5034562;28;20378;-67
2022/08/25 06:58:40;;;;;;;1999.90;999.90;;;23.60;99.90;;;;;;5038310;28;20385;-67
2022/08/25 07:01:14;;;;;;;1999.90;999.90;;;23.70;99.90;;;;;;5034724;28;20771;-67
2022/08/25 07:03:40;;;;;;;1999.90;999.90;;;23.80;99.90;;;;;;5034611;28;20449;-67
2022/08/25 07:06:06;;;;;;;1999.90;999.90;;;23.90;99.90;;;;;;5034404;28;20809;-67
2022/08/25 07:08:33;;;;;;;1999.90;999.90;;;24.10;99.90;;;;;;5034999;28;20910;-67
2022/08/25 07:11:04;;;;;;;1999.90;999.90;;;24.20;99.90;;;;;;5034617;28;20510;-66
2022/08/25 07:13:30;;;;;;;1999.90;999.90;;;24.30;99.90;;;;;;5034587;28;20775;-67
2022/08/25 07:15:56;;;;;;;1999.90;999.90;;;24.40;99.90;;;;;;5034276;28;20461;-66
2022/08/25 07:18:22;;;;;;;1999.90;999.90;;;24.40;99.90;;;;;;5034424;28;20489;-66
2022/08/25 07:20:48;;;;;;;1999.90;999.90;;;24.40;99.80;;;;;;5034423;28;20251;-65
2022/08/25 07:23:14;;;;;;;1999.90;999.90;;;24.60;99.50;;;;;;5034376;28;21002;-67
2022/08/25 07:25:39;;;;;;;1999.90;999.90;;;24.70;98.70;;;;;;5034383;28;20168;-67
2022/08/25 07:28:05;;;;;;;1999.90;999.90;;;24.80;98.80;;;;;;5033950;28;20200;-67
2022/08/25 07:30:31;;;;;;;1999.90;999.90;;;24.80;98.20;;;;;;5034346;28;20203;-66
2022/08/25 07:32:56;;;;;;;1999.90;999.90;;;24.90;97.70;;;;;;5039990;28;20172;-66
2022/08/25 07:35:24;;;;;;;1999.90;999.90;;;24.90;97.50;;;;;;5042918;28;20925;-67
2022/08/25 07:37:55;;;;;;;1999.90;999.90;;;25.00;97.70;;;;;;5041844;28;20181;-67
2022/08/25 07:40:35;;;;;;;1999.90;999.90;;;25.10;96.90;;;;;;5034105;28;20374;-67
2022/08/25 07:43:04;;;;;;;1999.90;999.90;;;25.20;96.10;;;;;;5033454;28;20478;-67
2022/08/25 07:45:32;;;;;;;1999.90;999.90;;;25.30;95.70;;;;;;5033854;28;20401;-66
2022/08/25 07:48:00;;;;;;;1999.90;999.90;;;25.40;94.80;;;;;;5033587;28;20400;-66
2022/08/25 07:50:27;;;;;;;1999.90;999.90;;;25.50;94.10;;;;;;5033899;28;20410;-67
2022/08/25 07:52:52;;;;;;;1999.90;999.90;;;25.60;94.20;;;;;;5033887;28;20465;-67
2022/08/25 07:55:19;;;;;;;1999.90;999.90;;;25.60;93.50;;;;;;5033794;28;20856;-67
2022/08/25 07:57:46;;;;;;;1999.90;999.90;;;25.70;93.30;;;;;;5033423;28;20193;-65
2022/08/25 08:00:15;;;;;;;1999.90;999.90;;;25.80;92.90;;;;;;5033671;28;20410;-66
2022/08/25 08:02:41;;;;;;;1999.90;999.90;;;25.90;91.90;;;;;;5042872;28;20426;-67
2022/08/25 08:05:08;;;;;;;1999.90;999.90;;;26.00;91.40;;;;;;5046280;28;20385;-66
2022/08/25 08:07:34;;;;;;;1999.90;999.90;;;26.10;90.80;;;;;;5038408;28;20999;-68
2022/08/25 08:10:00;;;;;;;1999.90;999.90;;;26.30;87.00;;;;;;5033584;28;20406;-68
2022/08/25 08:12:26;;;;;;;1999.90;999.90;;;26.30;85.20;;;;;;5033563;28;20169;-66
2022/08/25 08:14:52;;;;;;;1999.90;999.90;;;26.40;85.00;;;;;;5038346;28;20434;-67
2022/08/25 08:17:19;;;;;;;1999.90;999.90;;;26.50;83.60;;;;;;5035614;28;20732;-66
2022/08/25 08:19:45;;;;;;;1999.90;999.90;;;26.50;83.50;;;;;;5033304;28;20430;-67
2022/08/25 08:22:15;;;;;;;1999.90;999.90;;;26.70;79.00;;;;;;5033186;28;20465;-67
2022/08/25 08:24:43;;;;;;;1999.90;999.90;;;26.80;77.80;;;;;;5033485;28;20754;-67
2022/08/25 08:27:10;;;;;;;1999.90;999.90;;;27.00;75.90;;;;;;5033084;28;20428;-67
2022/08/25 08:29:37;;;;;;;1999.90;999.90;;;27.10;71.00;;;;;;5033237;28;20378;-67
2022/08/25 08:32:08;;;;;;;1999.90;999.90;;;27.30;70.20;;;;;;5044034;28;20382;-67
2022/08/25 08:34:35;;;;;;;1999.90;999.90;;;27.30;71.20;;;;;;5041716;28;20385;-65
2022/08/25 08:37:01;;;;;;;1999.90;999.90;;;27.40;70.40;;;;;;5032546;28;20419;-65
2022/08/25 08:39:27;;;;;;;1999.90;999.90;;;27.50;69.80;;;;;;5032955;28;20465;-68
2022/08/25 08:42:52;;;;;;;1999.90;999.90;;;27.60;69.50;;;;;;5032874;28;20195;-67
2022/08/25 08:45:58;;;;;;;1999.90;999.90;;;27.70;68.00;;;;;;4985805;28;20508;-67
2022/08/25 08:49:02;;;;;;;1999.90;999.90;;;27.90;64.40;;;;;;5030447;28;20419;-67
2022/08/25 08:51:38;;;;;;;1999.90;999.90;;;28.00;66.30;;;;;;5023513;28;20714;-66
2022/08/25 08:54:12;;;;;;;1999.90;999.90;;;28.10;65.50;;;;;;5041350;28;20392;-67
2022/08/25 08:56:44;;;;;;;1999.90;999.90;;;28.20;64.00;;;;;;5032483;28;20401;-66
2022/08/25 08:59:17;;;;;;;1999.90;999.90;;;28.40;62.80;;;;;;5043810;28;20430;-67
2022/08/25 09:01:58;;;;;;;1999.90;999.90;;;28.40;61.80;;;;;;5045935;28;20442;-67
2022/08/25 09:04:32;;;;;;;1999.90;999.90;;;28.30;61.10;;;;;;5038422;28;20460;-67
2022/08/25 09:07:00;;;;;;;1999.90;999.90;;;28.50;60.40;;;;;;5032195;28;20950;-67
2022/08/25 09:09:27;;;;;;;1999.90;999.90;;;28.60;59.80;;;;;;5032533;28;20498;-67
2022/08/25 09:12:11;;;;;;;1999.90;999.90;;;28.70;61.00;;;;;;5032471;28;20486;-67
2022/08/25 09:14:43;;;;;;;1999.90;999.90;;;28.80;59.80;;;;;;5032343;28;20495;-67
2022/08/25 09:17:34;;;;;;;1999.90;999.90;;;29.00;58.90;;;;;;5034870;28;20419;-68
2022/08/25 09:20:18;;;;;;;1999.90;999.90;;;29.10;58.10;;;;;;5034574;28;20473;-67
2022/08/25 09:23:16;;;;;;;1999.90;999.90;;;29.30;57.80;;;;;;5036882;28;20458;-67
2022/08/25 09:25:52;;;;;;;1999.90;999.90;;;29.40;56.90;;;;;;5039090;28;20481;-66
2022/08/25 09:28:45;;;;;;;1999.90;999.90;;;29.40;56.10;;;;;;5031986;28;20435;-66
2022/08/25 09:31:21;;;;;;;1999.90;999.90;;;29.50;56.30;;;;;;5032087;28;20920;-66
2022/08/25 09:33:47;;;;;;;1999.90;999.90;;;29.60;55.70;;;;;;5032176;28;20418;-67
2022/08/25 09:36:13;;;;;;;1999.90;999.90;;;29.70;55.10;;;;;;5031745;28;20411;-67
2022/08/25 09:38:39;;;;;;;1999.90;999.90;;;29.80;55.40;;;;;;5036854;28;20172;-67
2022/08/25 09:41:06;;;;;;;1999.90;999.90;;;30.00;53.90;;;;;;5038514;28;20768;-67
2022/08/25 09:43:43;;;;;;;1999.90;999.90;;;30.00;54.40;;;;;;5038947;28;20207;-67
2022/08/25 09:46:27;;;;;;;1999.90;999.90;;;30.10;53.60;;;;;;5032665;28;20761;-66
2022/08/25 09:48:58;;;;;;;1999.90;999.90;;;30.20;53.10;;;;;;5042443;28;20478;-67
2022/08/25 09:51:28;;;;;;;1999.90;999.90;;;30.40;52.50;;;;;;5042634;28;20453;-68
2022/08/25 09:54:17;;;;;;;1999.90;999.90;;;30.50;51.50;;;;;;5034304;28;20409;-67
2022/08/25 09:56:53;;;;;;;1999.90;999.90;;;30.70;51.10;;;;;;5031465;28;20450;-67
2022/08/25 09:59:23;;;;;;;1999.90;999.90;;;30.80;49.70;;;;;;5032482;28;20406;-66
2022/08/25 10:01:51;;;;;;;1999.90;999.90;;;30.90;49.90;;;;;;5031684;28;20908;-67
2022/08/25 10:04:28;;;;;;;1999.90;999.90;;;31.00;49.20;;;;;;5035399;28;20459;-66
2022/08/25 10:06:54;;;;;;;1999.90;999.90;;;31.20;48.60;;;;;;5034228;28;20835;-67
2022/08/25 10:09:33;;;;;;;1999.90;999.90;;;31.40;47.60;;;;;;5045259;28;20410;-67
2022/08/25 10:12:01;;;;;;;1999.90;999.90;;;31.50;44.60;;;;;;5041244;28;20414;-68
2022/08/25 10:14:30;;;;;;;1999.90;999.90;;;31.40;44.30;;;;;;5036014;28;20463;-67
2022/08/25 10:17:14;;;;;;;1999.90;999.90;;;31.50;45.00;;;;;;5035319;28;20423;-67
2022/08/25 10:19:40;;;;;;;1999.90;999.90;;;31.60;44.50;;;;;;5041142;28;20410;-68
2022/08/25 10:22:09;;;;;;;1999.90;999.90;;;31.70;44.90;;;;;;5036426;28;20399;-67
2022/08/25 10:24:36;;;;;;;1999.90;999.90;;;31.90;44.40;;;;;;5035669;28;20172;-67
2022/08/25 10:27:22;;;;;;;1999.90;999.90;;;32.20;42.60;;;;;;5040077;28;20959;-67
2022/08/25 10:30:09;;;;;;;1999.90;999.90;;;32.30;39.90;;;;;;5039384;28;20418;-67
2022/08/25 10:32:56;;;;;;;1999.90;999.90;;;32.60;38.70;;;;;;5040007;28;20517;-67
2022/08/25 10:35:39;;;;;;;1999.90;999.90;;;32.70;37.30;;;;;;5039209;28;20418;-68
2022/08/25 10:38:25;;;;;;;1999.90;999.90;;;32.80;36.20;;;;;;5036493;28;20434;-67
2022/08/25 10:40:57;;;;;;;1999.90;999.90;;;32.90;37.00;;;;;;5035313;28;20406;-67
2022/08/25 10:43:38;;;;;;;1999.90;999.90;;;33.00;37.50;;;;;;5035287;28;20830;-68
2022/08/25 10:46:09;;;;;;;1999.90;999.90;;;33.20;34.50;;;;;;5035001;28;20456;-67
2022/08/25 10:49:04;;;;;;;1999.90;999.90;;;33.20;33.70;;;;;;5035353;28;20426;-67
2022/08/25 10:52:02;;;;;;;1999.90;999.90;;;33.20;34.60;;;;;;5035149;28;20464;-67
2022/08/25 10:54:57;;;;;;;1999.90;999.90;;;33.20;32.90;;;;;;5034968;28;20460;-67
2022/08/25 10:57:35;;;;;;;1999.90;999.90;;;33.30;33.70;;;;;;5034628;28;20947;-67
2022/08/25 11:00:10;;;;;;;1999.90;999.90;;;33.40;32.20;;;;;;5034840;28;20415;-67
2022/08/25 11:03:04;;;;;;;1999.90;999.90;;;33.40;31.50;;;;;;5034746;28;20536;-66
2022/08/25 11:06:11;;;;;;;1999.90;999.90;;;33.50;30.10;;;;;;5034834;28;20403;-66
2022/08/25 11:08:45;;;;;;;1999.90;999.90;;;33.60;30.10;;;;;;5001604;28;20415;-66
2022/08/25 11:11:23;;;;;;;1999.90;999.90;;;33.70;31.10;;;;;;5043504;28;20497;-67
2022/08/25 11:14:04;;;;;;;1999.90;999.90;;;33.90;30.60;;;;;;5045911;28;20478;-68
2022/08/25 11:16:42;;;;;;;1999.90;999.90;;;34.20;29.60;;;;;;5034336;28;20423;-67
2022/08/25 11:19:14;;;;;;;1999.90;999.90;;;34.30;28.50;;;;;;5033259;28;20407;-67
2022/08/25 11:21:52;;;;;;;1999.90;999.90;;;34.50;27.80;;;;;;5034474;28;20414;-67
2022/08/25 11:24:42;;;;;;;1999.90;999.90;;;34.60;29.20;;;;;;5034511;28;20446;-67
2022/08/25 11:27:16;;;;;;;1999.90;999.90;;;34.70;28.00;;;;;;5034063;28;20452;-68
2022/08/25 11:30:00;;;;;;;1999.90;999.90;;;34.80;27.40;;;;;;5034467;28;20402;-66
2022/08/25 11:32:26;;;;;;;1999.90;999.90;;;34.90;27.30;;;;;;5034360;28;20481;-67
2022/08/25 11:34:52;;;;;;;1999.90;999.90;;;35.10;23.80;;;;;;5034431;28;20431;-68
2022/08/25 11:37:26;;;;;;;1999.90;999.90;;;34.90;22.70;;;;;;5042723;28;20223;-68
2022/08/25 11:40:05;;;;;;;1999.90;999.90;;;34.90;23.50;;;;;;5035897;28;20892;-68
2022/08/25 11:42:49;;;;;;;1999.90;999.90;;;34.90;22.50;;;;;;5034398;28;20545;-67
2022/08/25 11:45:29;;;;;;;1999.90;999.90;;;34.90;22.40;;;;;;5034207;28;20482;-67
2022/08/25 11:48:05;;;;;;;1999.90;999.90;;;34.90;21.90;;;;;;5033974;28;20446;-67
2022/08/25 11:50:56;;;;;;;1999.90;999.90;;;34.90;20.60;;;;;;5033997;28;20438;-68
2022/08/25 11:53:34;;;;;;;1999.90;999.90;;;35.10;20.10;;;;;;5033896;28;20411;-66
2022/08/25 11:56:11;;;;;;;1999.90;999.90;;;35.50;18.80;;;;;;5033559;28;20833;-66
2022/08/25 11:58:52;;;;;;;1999.90;999.90;;;36.20;18.30;;;;;;5033814;28;20407;-66
2022/08/25 12:01:43;;;;;;;1999.90;999.90;;;36.90;15.90;;;;;;5034249;28;20434;-67
2022/08/25 12:04:29;;;;;;;1999.90;999.90;;;37.60;15.60;;;;;;5034027;28;20450;-67
2022/08/25 12:07:09;;;;;;;1999.90;999.90;;;38.40;14.60;;;;;;5033816;28;20447;-67
2022/08/25 12:10:09;;;;;;;1999.90;999.90;;;39.20;14.30;;;;;;5034156;28;20426;-67
2022/08/25 12:12:34;;;;;;;1999.90;999.90;;;40.20;12.70;;;;;;5033673;28;20425;-67
2022/08/25 12:15:21;;;;;;;1999.90;999.90;;;41.10;11.70;;;;;;5034074;28;20497;-68
2022/08/25 12:18:15;;;;;;;1999.90;999.90;;;42.00;10.00;;;;;;5033502;28;20192;-68
2022/08/25 12:20:52;;;;;;;1999.90;999.90;;;42.40;8.20;;;;;;5033825;28;20912;-68